Time;durP1;ratioP1;P1;durP2;ratioP2;P2;SDS_P1;SDS_P2;PMS_P1;PMS_P2;Temp;Humidity;BMP_temperature;BMP_pressure;BME280_temperature;BME280_humidity;BME280_pressure;Samples;Min_cycle;Max_cycle;Signal;HPM_P1;HPM_P2
2023/10/28 00:01:13;;;;;;;16.93;3.93;;;;;;;;;;4979277;28;20505;-51
2023/10/28 00:03:40;;;;;;;16.92;3.35;;;;;;;;;;4982913;28;20554;-50
2023/10/28 00:06:07;;;;;;;21.23;4.50;;;;;;;;;;4987521;28;20490;-54
2023/10/28 00:08:34;;;;;;;15.73;3.65;;;;;;;;;;4972261;28;20108;-50
2023/10/28 00:11:00;;;;;;;22.05;3.83;;;;;;;;;;4973661;28;20038;-46
2023/10/28 00:13:26;;;;;;;19.58;4.35;;;;;;;;;;4973702;28;20027;-50
2023/10/28 00:15:53;;;;;;;24.70;4.70;;;;;;;;;;4977371;28;20118;-49
2023/10/28 00:18:19;;;;;;;9.70;3.08;;;;;;;;;;4973005;28;20042;-49
2023/10/28 00:20:45;;;;;;;9.75;2.88;;;;;;;;;;4976158;28;20033;-50
2023/10/28 00:23:14;;;;;;;15.13;3.20;;;;;;;;;;4988796;28;20022;-50
2023/10/28 00:25:41;;;;;;;11.93;3.03;;;;;;;;;;4973109;28;20433;-47
2023/10/28 00:28:07;;;;;;;13.82;3.10;;;;;;;;;;4985693;28;20471;-49
2023/10/28 00:30:33;;;;;;;9.95;2.35;;;;;;;;;;4983743;28;20038;-49
2023/10/28 00:33:00;;;;;;;10.55;2.90;;;;;;;;;;4972300;28;20039;-47
2023/10/28 00:35:28;;;;;;;12.38;4.07;;;;;;;;;;4983000;28;20034;-47
2023/10/28 00:37:54;;;;;;;14.48;3.67;;;;;;;;;;4986828;28;20030;-49
2023/10/28 00:40:24;;;;;;;10.23;3.42;;;;;;;;;;4976172;28;20034;-48
2023/10/28 00:42:51;;;;;;;14.43;3.80;;;;;;;;;;4974877;28;20073;-49
2023/10/28 00:45:18;;;;;;;9.68;3.55;;;;;;;;;;4982163;28;20101;-48
2023/10/28 00:47:48;;;;;;;9.25;2.78;;;;;;;;;;4974128;28;20121;-50
2023/10/28 00:50:17;;;;;;;13.40;4.43;;;;;;;;;;4974475;28;20400;-48
2023/10/28 00:52:44;;;;;;;10.25;3.03;;;;;;;;;;4975635;28;20035;-50
2023/10/28 00:55:15;;;;;;;16.67;4.35;;;;;;;;;;4992062;28;20034;-48
2023/10/28 00:57:42;;;;;;;12.13;3.13;;;;;;;;;;4992658;28;20034;-47
2023/10/28 01:00:10;;;;;;;11.88;3.80;;;;;;;;;;4984095;28;20030;-49
2023/10/28 01:02:38;;;;;;;13.80;3.15;;;;;;;;;;4992936;28;20097;-47
2023/10/28 01:05:05;;;;;;;14.63;3.10;;;;;;;;;;4994125;28;20690;-47
2023/10/28 01:07:32;;;;;;;10.48;3.05;;;;;;;;;;4992624;28;20038;-50
2023/10/28 01:09:58;;;;;;;11.93;3.63;;;;;;;;;;4990920;28;20054;-47
2023/10/28 01:12:26;;;;;;;13.30;3.77;;;;;;;;;;4994701;28;20034;-51
2023/10/28 01:14:53;;;;;;;9.48;3.33;;;;;;;;;;4981905;28;20027;-51
2023/10/28 01:17:21;;;;;;;15.98;3.97;;;;;;;;;;4992693;28;20400;-47
2023/10/28 01:19:47;;;;;;;22.98;5.30;;;;;;;;;;4988278;28;20023;-47
2023/10/28 01:22:14;;;;;;;11.57;3.35;;;;;;;;;;4974217;28;20382;-50
2023/10/28 01:24:40;;;;;;;15.32;3.75;;;;;;;;;;4981941;28;20125;-47
2023/10/28 01:27:09;;;;;;;11.67;3.50;;;;;;;;;;4993110;28;20109;-50
2023/10/28 01:29:36;;;;;;;9.93;3.15;;;;;;;;;;4992133;28;20042;-50
2023/10/28 01:32:03;;;;;;;13.43;3.47;;;;;;;;;;4977183;28;20030;-48
2023/10/28 01:34:29;;;;;;;14.82;3.67;;;;;;;;;;4974058;28;20026;-48
2023/10/28 01:36:56;;;;;;;10.35;3.72;;;;;;;;;;4973556;28;20057;-46
2023/10/28 01:39:22;;;;;;;10.00;3.20;;;;;;;;;;4976494;28;20030;-47
2023/10/28 01:41:49;;;;;;;15.45;3.13;;;;;;;;;;4987908;28;20177;-48
2023/10/28 01:44:16;;;;;;;10.55;4.63;;;;;;;;;;4988997;28;20030;-48
2023/10/28 01:46:43;;;;;;;17.05;3.80;;;;;;;;;;4992555;28;20407;-48
2023/10/28 01:49:10;;;;;;;17.48;4.30;;;;;;;;;;4974856;28;20146;-50
2023/10/28 01:51:36;;;;;;;17.30;4.53;;;;;;;;;;4974801;28;20023;-47
2023/10/28 01:54:03;;;;;;;18.45;4.07;;;;;;;;;;4977473;28;20468;-47
2023/10/28 01:56:29;;;;;;;14.35;3.95;;;;;;;;;;4958194;28;20127;-51
2023/10/28 01:58:56;;;;;;;10.02;4.00;;;;;;;;;;4977219;28;20397;-49
2023/10/28 02:01:25;;;;;;;12.73;3.80;;;;;;;;;;4980492;28;20041;-47
2023/10/28 02:03:53;;;;;;;13.88;3.70;;;;;;;;;;4976699;28;20393;-49
2023/10/28 02:06:19;;;;;;;8.85;3.67;;;;;;;;;;4992268;28;20026;-53
2023/10/28 02:08:45;;;;;;;11.65;4.40;;;;;;;;;;4992035;28;20397;-48
2023/10/28 02:11:11;;;;;;;15.97;3.50;;;;;;;;;;4990653;28;20041;-49
2023/10/28 02:13:38;;;;;;;11.77;4.15;;;;;;;;;;4984988;28;20793;-49
2023/10/28 02:16:05;;;;;;;15.93;4.55;;;;;;;;;;4982105;28;20058;-48
2023/10/28 02:18:33;;;;;;;9.43;4.03;;;;;;;;;;4973262;28;20497;-49
2023/10/28 02:20:59;;;;;;;8.35;3.60;;;;;;;;;;4975336;28;20276;-48
2023/10/28 02:23:26;;;;;;;10.55;3.47;;;;;;;;;;4983399;28;20026;-48
2023/10/28 02:25:52;;;;;;;11.35;3.58;;;;;;;;;;4956866;28;20041;-50
2023/10/28 02:28:18;;;;;;;14.63;4.47;;;;;;;;;;4988561;28;20392;-47
2023/10/28 02:30:45;;;;;;;8.75;2.90;;;;;;;;;;4992956;28;20058;-48
2023/10/28 02:33:11;;;;;;;16.13;5.20;;;;;;;;;;4979602;28;20057;-48
2023/10/28 02:35:37;;;;;;;9.47;3.80;;;;;;;;;;4993481;28;20500;-46
2023/10/28 02:38:04;;;;;;;13.67;3.83;;;;;;;;;;4989606;28;20049;-46
2023/10/28 02:40:30;;;;;;;14.95;4.68;;;;;;;;;;4992402;28;20030;-50
2023/10/28 02:42:56;;;;;;;11.47;3.70;;;;;;;;;;4991957;28;20049;-49
2023/10/28 02:45:22;;;;;;;12.32;3.83;;;;;;;;;;4992022;28;20114;-47
2023/10/28 02:47:49;;;;;;;9.75;4.15;;;;;;;;;;4992790;28;20034;-47
2023/10/28 02:50:18;;;;;;;9.43;4.00;;;;;;;;;;4985240;28;20477;-50
2023/10/28 02:52:44;;;;;;;9.32;3.38;;;;;;;;;;4973212;28;20531;-47
2023/10/28 02:55:10;;;;;;;11.75;3.67;;;;;;;;;;4975513;28;20501;-46
2023/10/28 02:57:38;;;;;;;12.10;4.40;;;;;;;;;;4974581;28;20041;-47
2023/10/28 03:00:08;;;;;;;12.32;4.40;;;;;;;;;;4975571;28;20062;-47
2023/10/28 03:02:35;;;;;;;11.63;4.18;;;;;;;;;;4973252;28;21740;-49
2023/10/28 03:05:01;;;;;;;7.22;3.38;;;;;;;;;;4989541;28;20042;-47
2023/10/28 03:07:27;;;;;;;16.30;5.47;;;;;;;;;;4973843;28;20042;-49
2023/10/28 03:09:53;;;;;;;8.95;3.97;;;;;;;;;;4956767;28;20038;-49
2023/10/28 03:12:20;;;;;;;11.70;3.80;;;;;;;;;;4982796;28;20023;-51
2023/10/28 03:14:46;;;;;;;9.98;4.68;;;;;;;;;;4966325;28;20022;-49
2023/10/28 03:17:13;;;;;;;12.95;4.13;;;;;;;;;;4976159;28;20037;-50
2023/10/28 03:19:39;;;;;;;20.48;3.78;;;;;;;;;;4992318;28;20117;-52
2023/10/28 03:22:05;;;;;;;12.00;3.22;;;;;;;;;;4991405;28;20482;-49
2023/10/28 03:24:33;;;;;;;11.35;4.28;;;;;;;;;;4992166;28;20572;-50
2023/10/28 03:26:59;;;;;;;15.98;4.72;;;;;;;;;;4979427;28;20125;-53
2023/10/28 03:29:25;;;;;;;10.73;4.13;;;;;;;;;;4990513;28;20034;-50
2023/10/28 03:31:51;;;;;;;16.63;4.57;;;;;;;;;;4981189;28;20046;-49
2023/10/28 03:34:17;;;;;;;9.38;4.45;;;;;;;;;;4971996;28;20019;-50
2023/10/28 03:36:43;;;;;;;15.52;4.47;;;;;;;;;;4984479;28;20378;-48
2023/10/28 03:39:10;;;;;;;17.30;4.93;;;;;;;;;;4961630;28;20031;-49
2023/10/28 03:41:37;;;;;;;12.30;4.75;;;;;;;;;;4973045;28;20034;-48
2023/10/28 03:44:04;;;;;;;14.88;5.88;;;;;;;;;;4985375;28;20030;-50
2023/10/28 03:46:30;;;;;;;13.47;4.30;;;;;;;;;;4976395;28;20038;-49
2023/10/28 03:48:56;;;;;;;13.57;4.63;;;;;;;;;;4975041;28;20035;-48
2023/10/28 03:51:23;;;;;;;13.35;4.80;;;;;;;;;;4971837;28;20100;-50
2023/10/28 03:53:49;;;;;;;15.75;4.78;;;;;;;;;;4972697;28;20524;-48
2023/10/28 03:56:15;;;;;;;17.88;5.10;;;;;;;;;;4972734;28;20038;-49
2023/10/28 03:58:41;;;;;;;12.65;4.80;;;;;;;;;;4972687;28;20045;-52
2023/10/28 04:01:07;;;;;;;7.60;3.20;;;;;;;;;;4972710;28;20038;-52
2023/10/28 04:03:33;;;;;;;10.65;5.05;;;;;;;;;;4971535;28;20031;-52
2023/10/28 04:06:00;;;;;;;12.65;4.47;;;;;;;;;;4971420;28;20455;-49
2023/10/28 04:08:26;;;;;;;9.32;3.72;;;;;;;;;;4973601;28;20031;-48
2023/10/28 04:10:53;;;;;;;16.85;4.35;;;;;;;;;;4976543;28;20030;-48
2023/10/28 04:13:19;;;;;;;12.10;5.50;;;;;;;;;;4976487;28;20027;-49
2023/10/28 04:15:48;;;;;;;11.23;4.30;;;;;;;;;;4975254;28;20035;-50
2023/10/28 04:18:15;;;;;;;8.40;3.92;;;;;;;;;;4976344;28;20027;-48
2023/10/28 04:20:41;;;;;;;15.23;4.60;;;;;;;;;;4976451;28;20113;-49
2023/10/28 04:23:07;;;;;;;10.40;4.20;;;;;;;;;;4976479;28;20081;-48
2023/10/28 04:25:33;;;;;;;16.52;5.35;;;;;;;;;;4976408;28;20085;-48
2023/10/28 04:27:59;;;;;;;13.45;6.10;;;;;;;;;;4975584;28;20061;-49
2023/10/28 04:30:26;;;;;;;13.03;4.87;;;;;;;;;;4976367;28;20572;-49
2023/10/28 04:32:55;;;;;;;11.95;4.40;;;;;;;;;;4992576;28;20272;-49
2023/10/28 04:35:21;;;;;;;12.02;5.75;;;;;;;;;;4995745;28;20034;-49
2023/10/28 04:37:47;;;;;;;18.27;6.27;;;;;;;;;;4995592;28;20390;-51
2023/10/28 04:40:13;;;;;;;15.80;6.05;;;;;;;;;;4994522;28;20118;-48
2023/10/28 04:42:39;;;;;;;16.50;6.23;;;;;;;;;;4977902;28;20031;-51
2023/10/28 04:45:06;;;;;;;11.50;5.78;;;;;;;;;;4976197;28;20031;-52
2023/10/28 04:47:32;;;;;;;10.10;5.07;;;;;;;;;;4999972;23;20075;-52
2023/10/28 04:49:59;;;;;;;10.30;5.43;;;;;;;;;;5012651;28;20376;-47
2023/10/28 04:52:25;;;;;;;17.63;6.30;;;;;;;;;;4997209;28;20029;-50
2023/10/28 04:54:51;;;;;;;8.85;5.68;;;;;;;;;;5013803;28;20022;-50
2023/10/28 04:57:17;;;;;;;14.20;5.90;;;;;;;;;;5011147;28;20121;-47
2023/10/28 04:59:43;;;;;;;13.52;5.43;;;;;;;;;;4995448;28;20038;-49
2023/10/28 05:02:11;;;;;;;11.95;6.07;;;;;;;;;;4995313;28;20054;-47
2023/10/28 05:04:37;;;;;;;12.48;5.10;;;;;;;;;;4995223;28;20030;-46
2023/10/28 05:07:04;;;;;;;12.07;4.65;;;;;;;;;;4995001;28;20489;-47
2023/10/28 05:09:30;;;;;;;10.65;5.22;;;;;;;;;;4995160;28;20069;-46
2023/10/28 05:11:57;;;;;;;13.57;6.35;;;;;;;;;;4993288;28;20436;-48
2023/10/28 05:14:23;;;;;;;10.52;4.22;;;;;;;;;;4995137;28;20485;-49
2023/10/28 05:16:51;;;;;;;15.77;6.25;;;;;;;;;;4994525;28;20027;-47
2023/10/28 05:19:18;;;;;;;12.20;5.93;;;;;;;;;;4994749;28;20046;-46
2023/10/28 05:21:45;;;;;;;12.55;5.78;;;;;;;;;;4994839;28;20457;-47
2023/10/28 05:24:11;;;;;;;13.88;7.20;;;;;;;;;;4994934;28;20085;-47
2023/10/28 05:26:37;;;;;;;11.55;7.72;;;;;;;;;;4993381;28;20451;-49
2023/10/28 05:29:04;;;;;;;14.18;6.78;;;;;;;;;;4994753;28;20034;-50
2023/10/28 05:31:30;;;;;;;12.38;7.53;;;;;;;;;;4994726;28;20109;-47
2023/10/28 05:33:56;;;;;;;18.67;7.57;;;;;;;;;;4994652;28;20030;-48
2023/10/28 05:36:22;;;;;;;12.48;7.78;;;;;;;;;;4994647;28;20552;-48
2023/10/28 05:38:49;;;;;;;14.32;8.13;;;;;;;;;;4977077;28;20061;-50
2023/10/28 05:41:15;;;;;;;14.15;7.32;;;;;;;;;;4993291;28;20113;-51
2023/10/28 05:43:41;;;;;;;14.38;6.45;;;;;;;;;;4994774;28;20033;-51
2023/10/28 05:46:07;;;;;;;17.50;6.43;;;;;;;;;;4994473;28;20026;-48
2023/10/28 05:48:33;;;;;;;12.17;6.60;;;;;;;;;;4994315;28;20038;-48
2023/10/28 05:51:02;;;;;;;12.88;6.53;;;;;;;;;;4993458;28;20045;-48
2023/10/28 05:53:28;;;;;;;16.45;7.43;;;;;;;;;;4994021;28;20031;-47
2023/10/28 05:55:54;;;;;;;11.50;7.20;;;;;;;;;;4994213;28;20503;-46
2023/10/28 05:58:21;;;;;;;21.38;8.82;;;;;;;;;;4994257;28;20026;-50
2023/10/28 06:00:49;;;;;;;19.42;8.10;;;;;;;;;;4994248;28;20022;-49
2023/10/28 06:03:15;;;;;;;13.50;9.10;;;;;;;;;;4992967;28;20565;-49
2023/10/28 06:05:41;;;;;;;11.13;7.68;;;;;;;;;;4994186;28;20103;-49
2023/10/28 06:08:08;;;;;;;14.45;7.53;;;;;;;;;;4992604;28;20034;-52
2023/10/28 06:10:37;;;;;;;11.20;8.30;;;;;;;;;;4992696;28;20077;-47
2023/10/28 06:13:03;;;;;;;14.32;8.07;;;;;;;;;;4994028;28;20034;-48
2023/10/28 06:15:30;;;;;;;20.23;7.57;;;;;;;;;;4994110;28;20636;-50
2023/10/28 06:17:57;;;;;;;19.10;8.13;;;;;;;;;;4993694;28;20034;-52
2023/10/28 06:20:23;;;;;;;18.60;7.90;;;;;;;;;;4993879;28;20042;-48
2023/10/28 06:22:49;;;;;;;13.48;7.68;;;;;;;;;;4993794;28;20096;-47
2023/10/28 06:25:15;;;;;;;17.70;7.70;;;;;;;;;;4992435;28;20039;-50
2023/10/28 06:27:42;;;;;;;14.10;7.82;;;;;;;;;;4993463;28;20050;-47
2023/10/28 06:30:11;;;;;;;18.83;9.85;;;;;;;;;;4993626;28;20038;-47
2023/10/28 06:32:41;;;;;;;14.45;8.05;;;;;;;;;;4992693;28;20460;-47
2023/10/28 06:35:08;;;;;;;10.70;7.40;;;;;;;;;;4993590;28;20030;-47
2023/10/28 06:37:34;;;;;;;13.52;8.02;;;;;;;;;;4993304;28;20053;-48
2023/10/28 06:40:00;;;;;;;18.30;10.75;;;;;;;;;;4993589;28;20052;-47
2023/10/28 06:42:26;;;;;;;14.50;8.63;;;;;;;;;;4993466;28;20435;-47
2023/10/28 06:44:52;;;;;;;13.80;8.13;;;;;;;;;;4992270;28;20060;-46
2023/10/28 06:47:20;;;;;;;13.70;7.97;;;;;;;;;;4993140;28;20041;-48
2023/10/28 06:49:46;;;;;;;15.40;8.95;;;;;;;;;;4993246;28;20034;-50
2023/10/28 06:52:13;;;;;;;15.48;8.18;;;;;;;;;;4992148;28;20042;-50
2023/10/28 06:54:39;;;;;;;22.85;8.52;;;;;;;;;;4991632;28;20085;-50
2023/10/28 06:57:06;;;;;;;10.85;7.70;;;;;;;;;;4992899;28;20027;-50
2023/10/28 06:59:34;;;;;;;14.77;8.18;;;;;;;;;;4993417;28;20037;-50
2023/10/28 07:02:00;;;;;;;19.13;8.30;;;;;;;;;;4992838;28;20516;-47
2023/10/28 07:04:27;;;;;;;19.37;9.40;;;;;;;;;;4991675;28;20034;-50
2023/10/28 07:06:53;;;;;;;16.83;9.02;;;;;;;;;;4992730;28;20037;-50
2023/10/28 07:09:20;;;;;;;13.57;7.70;;;;;;;;;;4992931;28;20112;-48
2023/10/28 07:11:47;;;;;;;17.35;8.52;;;;;;;;;;4992909;28;20033;-49
2023/10/28 07:14:13;;;;;;;25.90;8.68;;;;;;;;;;4992930;28;20022;-47
2023/10/28 07:16:41;;;;;;;19.77;8.35;;;;;;;;;;4992508;28;20471;-51
2023/10/28 07:19:07;;;;;;;15.30;8.38;;;;;;;;;;4992548;28;20428;-49
2023/10/28 07:21:35;;;;;;;16.13;9.73;;;;;;;;;;4992756;28;20042;-51
2023/10/28 07:24:01;;;;;;;17.40;11.05;;;;;;;;;;4991348;28;20118;-51
2023/10/28 07:26:29;;;;;;;20.05;9.75;;;;;;;;;;4992798;28;20081;-50
2023/10/28 07:28:56;;;;;;;16.92;10.40;;;;;;;;;;4992466;28;20061;-50
2023/10/28 07:31:22;;;;;;;15.70;9.18;;;;;;;;;;4992541;28;20098;-50
2023/10/28 07:33:49;;;;;;;16.00;9.43;;;;;;;;;;4982203;28;20699;-49
2023/10/28 07:36:15;;;;;;;15.18;10.50;;;;;;;;;;4971809;28;20301;-55
2023/10/28 07:38:41;;;;;;;16.65;8.75;;;;;;;;;;4973037;28;20038;-47
2023/10/28 07:41:07;;;;;;;16.10;9.27;;;;;;;;;;4973147;28;20027;-50
2023/10/28 07:43:33;;;;;;;19.17;10.05;;;;;;;;;;4972843;28;20038;-47
2023/10/28 07:46:00;;;;;;;19.35;10.15;;;;;;;;;;4972836;28;20557;-48
2023/10/28 07:48:28;;;;;;;22.02;11.02;;;;;;;;;;4972730;28;20026;-46
2023/10/28 07:50:54;;;;;;;15.60;9.75;;;;;;;;;;4972964;28;20035;-48
2023/10/28 07:53:20;;;;;;;24.73;10.52;;;;;;;;;;4972842;28;20019;-48
2023/10/28 07:55:47;;;;;;;21.10;10.13;;;;;;;;;;4971820;28;20046;-47
2023/10/28 07:58:13;;;;;;;16.40;9.70;;;;;;;;;;4972798;28;20114;-52
2023/10/28 08:00:39;;;;;;;20.55;9.63;;;;;;;;;;4971819;28;20080;-53
2023/10/28 08:03:05;;;;;;;19.13;10.87;;;;;;;;;;4977426;28;20412;-50
2023/10/28 08:05:31;;;;;;;18.35;10.25;;;;;;;;;;4992242;28;20563;-51
2023/10/28 08:07:58;;;;;;;23.53;10.73;;;;;;;;;;4990681;28;20030;-50
2023/10/28 08:10:24;;;;;;;18.45;11.15;;;;;;;;;;4992223;28;20049;-50
2023/10/28 08:12:51;;;;;;;22.70;11.67;;;;;;;;;;4992120;28;20049;-54
2023/10/28 08:15:19;;;;;;;17.50;10.50;;;;;;;;;;4992198;28;20030;-50
2023/10/28 08:17:45;;;;;;;19.63;10.23;;;;;;;;;;4990675;28;20117;-50
2023/10/28 08:20:14;;;;;;;14.13;9.60;;;;;;;;;;4992254;28;20401;-48
2023/10/28 08:22:40;;;;;;;17.58;10.45;;;;;;;;;;4991947;28;20034;-51
2023/10/28 08:25:08;;;;;;;20.17;10.48;;;;;;;;;;4992128;28;20409;-53
2023/10/28 08:27:34;;;;;;;15.85;10.25;;;;;;;;;;4991729;28;20030;-51
2023/10/28 08:30:01;;;;;;;20.42;11.50;;;;;;;;;;4991974;28;20396;-51
2023/10/28 08:32:27;;;;;;;;;;;;;;;;;;4991381;28;20034;-48
2023/10/28 08:34:55;;;;;;;18.88;10.35;;;;;;;;;;4991905;28;20371;-48
2023/10/28 08:37:21;;;;;;;;;;;;;;;;;;4992192;28;20020;-52
2023/10/28 08:39:47;;;;;;;17.00;10.80;;;;;;;;;;4992024;28;20479;-51
2023/10/28 08:42:14;;;;;;;18.33;9.63;;;;;;;;;;4991990;28;20477;-49
2023/10/28 08:44:41;;;;;;;17.03;10.73;;;;;;;;;;4992000;28;20269;-48
2023/10/28 08:47:07;;;;;;;26.75;10.50;;;;;;;;;;4991535;28;20080;-47
2023/10/28 08:49:38;;;;;;;19.70;9.37;;;;;;;;;;4974322;28;20516;-47
2023/10/28 08:52:05;;;;;;;21.23;10.23;;;;;;;;;;4991869;28;20440;-47
2023/10/28 08:54:33;;;;;;;19.98;9.60;;;;;;;;;;4992044;28;20023;-48
2023/10/28 08:57:00;;;;;;;18.08;10.93;;;;;;;;;;4995089;28;20154;-47
2023/10/28 08:59:29;;;;;;;14.18;8.90;;;;;;;;;;4995343;28;20489;-50
2023/10/28 09:01:57;;;;;;;19.25;9.45;;;;;;;;;;4995277;28;20030;-48
2023/10/28 09:04:23;;;;;;;15.70;8.57;;;;;;;;;;4995323;28;20038;-44
2023/10/28 09:06:52;;;;;;;15.82;9.27;;;;;;;;;;4993804;28;20027;-49
2023/10/28 09:09:21;;;;;;;14.50;9.07;;;;;;;;;;4995077;28;20062;-46
2023/10/28 09:11:48;;;;;;;21.73;9.70;;;;;;;;;;4995058;28;20026;-47
2023/10/28 09:14:14;;;;;;;21.85;9.73;;;;;;;;;;4995242;28;20023;-47
2023/10/28 09:16:41;;;;;;;19.02;10.27;;;;;;;;;;4994923;28;20037;-45
2023/10/28 09:19:20;;;;;;;22.52;9.82;;;;;;;;;;4995190;28;20049;-45
2023/10/28 09:21:49;;;;;;;22.85;11.38;;;;;;;;;;4994917;28;20516;-45
2023/10/28 09:24:16;;;;;;;17.10;9.32;;;;;;;;;;4994900;28;20074;-43
2023/10/28 09:26:42;;;;;;;24.98;9.20;;;;;;;;;;4994642;28;20492;-45
2023/10/28 09:29:08;;;;;;;20.80;9.55;;;;;;;;;;4994656;28;20058;-47
2023/10/28 09:31:35;;;;;;;29.70;9.55;;;;;;;;;;4994733;28;20045;-46
2023/10/28 09:34:01;;;;;;;23.23;11.10;;;;;;;;;;4994649;28;20030;-47
2023/10/28 09:36:29;;;;;;;17.60;9.77;;;;;;;;;;4994165;28;20182;-46
2023/10/28 09:38:56;;;;;;;25.52;10.43;;;;;;;;;;4994463;28;20026;-48
2023/10/28 09:41:22;;;;;;;;;;;;;;;;;;4995049;28;20033;-48
2023/10/28 09:43:48;;;;;;;23.20;11.10;;;;;;;;;;4994415;28;19964;-50
2023/10/28 09:46:19;;;;;;;22.40;10.05;;;;;;;;;;4994293;28;20493;-49
2023/10/28 09:48:48;;;;;;;16.05;8.77;;;;;;;;;;4994058;28;20038;-48
2023/10/28 09:51:20;;;;;;;19.88;9.57;;;;;;;;;;4994129;28;20120;-50
2023/10/28 09:53:52;;;;;;;13.80;9.07;;;;;;;;;;4994484;28;20037;-47
2023/10/28 09:56:18;;;;;;;19.48;8.75;;;;;;;;;;4994132;28;20026;-48
2023/10/28 09:58:54;;;;;;;17.65;12.07;;;;;;;;;;4994218;28;20023;-47
2023/10/28 10:01:27;;;;;;;13.63;9.02;;;;;;;;;;4994365;28;20533;-51
2023/10/28 10:04:08;;;;;;;22.77;10.32;;;;;;;;;;4993028;28;20030;-49
2023/10/28 10:06:34;;;;;;;14.48;8.60;;;;;;;;;;4993693;28;20105;-51
2023/10/28 10:09:01;;;;;;;22.20;9.70;;;;;;;;;;4994152;28;20069;-48
2023/10/28 10:11:27;;;;;;;23.13;9.32;;;;;;;;;;4994026;28;20040;-47
2023/10/28 10:13:57;;;;;;;15.57;10.02;;;;;;;;;;4994111;28;20385;-48
2023/10/28 10:16:29;;;;;;;13.40;8.20;;;;;;;;;;4993743;28;20496;-45
2023/10/28 10:18:58;;;;;;;17.25;8.35;;;;;;;;;;4992356;28;20497;-47
2023/10/28 10:21:32;;;;;;;14.48;9.15;;;;;;;;;;4992563;28;20117;-45
2023/10/28 10:24:03;;;;;;;16.35;8.63;;;;;;;;;;4993851;28;20033;-46
2023/10/28 10:26:31;;;;;;;16.55;8.23;;;;;;;;;;4993695;28;20531;-45
2023/10/28 10:28:59;;;;;;;12.95;7.55;;;;;;;;;;4993409;28;20026;-44
2023/10/28 10:31:32;;;;;;;13.45;7.63;;;;;;;;;;4990680;28;20100;-46
2023/10/28 10:34:03;;;;;;;17.48;7.78;;;;;;;;;;4975457;28;20022;-44
2023/10/28 10:36:31;;;;;;;17.70;8.07;;;;;;;;;;4979780;28;20030;-46
2023/10/28 10:38:57;;;;;;;;;;;;;;;;;;4993855;28;20560;-45
2023/10/28 10:41:27;;;;;;;15.63;7.75;;;;;;;;;;4992317;28;19917;-48
2023/10/28 10:43:53;;;;;;;15.57;7.13;;;;;;;;;;4992993;28;20038;-49
2023/10/28 10:46:20;;;;;;;13.00;6.37;;;;;;;;;;4993307;28;20034;-51
2023/10/28 10:48:49;;;;;;;12.27;7.50;;;;;;;;;;4995895;23;20047;-50
2023/10/28 10:51:16;;;;;;;20.10;7.88;;;;;;;;;;4954323;29;20054;-48
2023/10/28 10:53:45;;;;;;;12.50;6.82;;;;;;;;;;4954560;29;20035;-50
2023/10/28 10:56:21;;;;;;;16.67;6.50;;;;;;;;;;4954267;29;20588;-49
2023/10/28 10:58:47;;;;;;;13.10;6.10;;;;;;;;;;4941397;29;20115;-47
2023/10/28 11:01:15;;;;;;;15.07;5.77;;;;;;;;;;4934761;29;20032;-47
2023/10/28 11:03:41;;;;;;;10.27;5.82;;;;;;;;;;4934990;29;20388;-49
2023/10/28 11:06:07;;;;;;;17.67;5.63;;;;;;;;;;4935063;29;20066;-47
2023/10/28 11:08:34;;;;;;;12.32;6.25;;;;;;;;;;4917695;29;20268;-49
2023/10/28 11:11:03;;;;;;;15.68;6.20;;;;;;;;;;4918028;29;20074;-51
2023/10/28 11:13:29;;;;;;;10.20;4.60;;;;;;;;;;4934648;29;20485;-48
2023/10/28 11:15:56;;;;;;;8.75;4.75;;;;;;;;;;4934738;29;20032;-49
2023/10/28 11:18:22;;;;;;;8.30;5.15;;;;;;;;;;4933990;29;20023;-47
2023/10/28 11:20:50;;;;;;;10.47;4.30;;;;;;;;;;4934843;29;20390;-47
2023/10/28 11:23:19;;;;;;;9.55;4.75;;;;;;;;;;4934148;29;20427;-48
2023/10/28 11:25:48;;;;;;;9.20;3.88;;;;;;;;;;4917571;29;20051;-48
2023/10/28 11:28:14;;;;;;;9.52;4.78;;;;;;;;;;4934572;29;20084;-49
2023/10/28 11:30:48;;;;;;;10.73;5.97;;;;;;;;;;4934192;29;20023;-50
2023/10/28 11:33:15;;;;;;;10.23;5.90;;;;;;;;;;4931086;29;20526;-50
2023/10/28 11:35:41;;;;;;;11.13;6.32;;;;;;;;;;4930266;29;20114;-47
2023/10/28 11:38:10;;;;;;;12.20;5.53;;;;;;;;;;4928800;29;20282;-50
2023/10/28 11:40:36;;;;;;;12.48;5.60;;;;;;;;;;4932730;29;20366;-47
2023/10/28 11:43:06;;;;;;;10.47;5.70;;;;;;;;;;4932499;29;20042;-47
2023/10/28 11:45:32;;;;;;;12.52;5.47;;;;;;;;;;4932390;29;20774;-47
2023/10/28 11:47:58;;;;;;;14.60;5.90;;;;;;;;;;4932285;29;20040;-48
2023/10/28 11:50:24;;;;;;;10.93;5.53;;;;;;;;;;4936512;29;20064;-52
2023/10/28 11:52:50;;;;;;;12.27;4.82;;;;;;;;;;4915553;29;20031;-49
2023/10/28 11:55:17;;;;;;;13.30;4.97;;;;;;;;;;4931779;29;20031;-51
2023/10/28 11:57:44;;;;;;;7.57;4.20;;;;;;;;;;4932227;29;20027;-51
2023/10/28 12:00:11;;;;;;;;;;;;;;;;;;4932786;29;20528;-47
2023/10/28 12:02:37;;;;;;;12.90;5.28;;;;;;;;;;4932245;29;20341;-47
2023/10/28 12:05:03;;;;;;;12.70;4.80;;;;;;;;;;4932532;29;20038;-46
2023/10/28 12:07:29;;;;;;;12.35;4.95;;;;;;;;;;4932588;29;20036;-46
2023/10/28 12:09:56;;;;;;;13.48;4.68;;;;;;;;;;4940429;29;20491;-47
2023/10/28 12:12:22;;;;;;;9.63;4.10;;;;;;;;;;4932588;29;20390;-51
2023/10/28 12:14:48;;;;;;;8.98;3.60;;;;;;;;;;4913800;29;20026;-48
2023/10/28 12:17:14;;;;;;;7.03;2.47;;;;;;;;;;4932358;29;20030;-49
2023/10/28 12:19:41;;;;;;;6.30;2.42;;;;;;;;;;4932422;29;20039;-48
2023/10/28 12:22:08;;;;;;;8.93;2.00;;;;;;;;;;4932292;29;20372;-48
2023/10/28 12:24:34;;;;;;;6.72;3.17;;;;;;;;;;4932676;29;20031;-47
2023/10/28 12:27:00;;;;;;;6.15;2.60;;;;;;;;;;4932505;29;20066;-49
2023/10/28 12:29:27;;;;;;;6.30;2.45;;;;;;;;;;4932556;29;20499;-48
2023/10/28 12:31:53;;;;;;;5.32;2.38;;;;;;;;;;4918791;29;20039;-47
2023/10/28 12:34:19;;;;;;;6.60;2.47;;;;;;;;;;4936215;29;20055;-47
2023/10/28 12:36:47;;;;;;;7.25;2.72;;;;;;;;;;4936235;29;20042;-48
2023/10/28 12:39:16;;;;;;;6.70;2.15;;;;;;;;;;4935646;29;20036;-52
2023/10/28 12:41:44;;;;;;;9.52;2.15;;;;;;;;;;4935566;29;20091;-49
2023/10/28 12:44:11;;;;;;;7.80;2.65;;;;;;;;;;4935988;29;20099;-47
2023/10/28 12:46:37;;;;;;;;;;;;;;;;;;4935973;29;20032;-47
2023/10/28 12:49:03;;;;;;;9.43;2.88;;;;;;;;;;4935620;29;19970;-50
2023/10/28 12:51:30;;;;;;;7.32;2.53;;;;;;;;;;4936203;29;20456;-46
2023/10/28 12:53:57;;;;;;;;;;;;;;;;;;4935911;29;20498;-49
2023/10/28 12:56:23;;;;;;;7.32;2.45;;;;;;;;;;4936003;29;19915;-49
2023/10/28 12:58:50;;;;;;;8.73;2.38;;;;;;;;;;4936287;29;20039;-49
2023/10/28 13:01:16;;;;;;;5.22;1.70;;;;;;;;;;4918161;29;20036;-48
2023/10/28 13:03:42;;;;;;;7.65;2.33;;;;;;;;;;4935942;29;20099;-50
2023/10/28 13:06:09;;;;;;;6.68;2.28;;;;;;;;;;4902962;29;20067;-48
2023/10/28 13:08:35;;;;;;;5.65;1.95;;;;;;;;;;4918736;29;20115;-46
2023/10/28 13:11:02;;;;;;;6.70;1.83;;;;;;;;;;4917974;29;20031;-46
2023/10/28 13:13:28;;;;;;;;;;;;;;;;;;4916335;29;20398;-47
2023/10/28 13:15:55;;;;;;;8.00;2.60;;;;;;;;;;4931893;29;20345;-45
2023/10/28 13:18:21;;;;;;;8.77;2.35;;;;;;;;;;4935532;29;20391;-47
2023/10/28 13:20:47;;;;;;;8.38;2.55;;;;;;;;;;4902540;29;20023;-49
2023/10/28 13:23:14;;;;;;;8.07;2.60;;;;;;;;;;4934641;29;20030;-49
2023/10/28 13:25:40;;;;;;;8.65;2.63;;;;;;;;;;4935105;29;20162;-51
2023/10/28 13:28:09;;;;;;;7.88;2.55;;;;;;;;;;4935074;29;20035;-53
2023/10/28 13:30:35;;;;;;;11.02;2.67;;;;;;;;;;4917275;29;20039;-50
2023/10/28 13:33:02;;;;;;;11.23;3.80;;;;;;;;;;4934947;29;20047;-49
2023/10/28 13:35:29;;;;;;;7.03;2.08;;;;;;;;;;4935000;29;20023;-50
2023/10/28 13:37:55;;;;;;;6.43;2.83;;;;;;;;;;4934473;29;20498;-49
2023/10/28 13:40:21;;;;;;;8.13;3.08;;;;;;;;;;4917636;29;20123;-49
2023/10/28 13:42:47;;;;;;;9.95;3.25;;;;;;;;;;4923692;29;20036;-49
2023/10/28 13:45:13;;;;;;;8.65;2.88;;;;;;;;;;4921161;29;20039;-48
2023/10/28 13:47:43;;;;;;;11.18;3.28;;;;;;;;;;4934516;29;20042;-49
2023/10/28 13:50:09;;;;;;;8.88;3.35;;;;;;;;;;4917162;29;20039;-49
2023/10/28 13:52:35;;;;;;;9.23;2.95;;;;;;;;;;4917476;29;20023;-47
2023/10/28 13:55:03;;;;;;;9.43;3.42;;;;;;;;;;4935049;29;20032;-48
2023/10/28 13:57:29;;;;;;;12.73;3.05;;;;;;;;;;4934732;29;20110;-48
2023/10/28 13:59:56;;;;;;;9.20;3.40;;;;;;;;;;4934770;29;20032;-48
2023/10/28 14:02:22;;;;;;;8.35;2.50;;;;;;;;;;4934326;29;20038;-49
2023/10/28 14:04:48;;;;;;;10.75;3.17;;;;;;;;;;4934504;29;20071;-48
2023/10/28 14:07:15;;;;;;;9.02;3.63;;;;;;;;;;4934288;29;20038;-47
2023/10/28 14:09:42;;;;;;;;;;;;;;;;;;4934769;29;20106;-48
2023/10/28 14:12:09;;;;;;;18.40;3.70;;;;;;;;;;4919256;29;20825;-46
2023/10/28 14:14:35;;;;;;;12.43;3.85;;;;;;;;;;4932534;29;20058;-47
2023/10/28 14:17:04;;;;;;;15.45;3.00;;;;;;;;;;4934065;29;20056;-43
2023/10/28 14:19:30;;;;;;;11.00;3.45;;;;;;;;;;4917268;29;20047;-45
2023/10/28 14:21:56;;;;;;;12.75;4.03;;;;;;;;;;4934132;29;20517;-45
2023/10/28 14:24:22;;;;;;;12.60;3.83;;;;;;;;;;4934381;29;20581;-46
2023/10/28 14:26:49;;;;;;;10.13;4.00;;;;;;;;;;4916947;29;20082;-46
2023/10/28 14:29:15;;;;;;;8.80;3.33;;;;;;;;;;4934104;29;20070;-45
2023/10/28 14:31:42;;;;;;;10.73;3.97;;;;;;;;;;4933742;29;20027;-46